createdAt,value
2023-04-02T00:01:07.919Z,99.20
2023-04-02T00:06:40.660Z,99.49
2023-04-02T00:11:46.865Z,99.35
2023-04-02T00:16:53.015Z,99.09
2023-04-02T00:21:58.579Z,99.36
2023-04-02T00:27:02.405Z,98.88
2023-04-02T00:32:07.356Z,99.45
2023-04-02T00:37:23.824Z,99.65
2023-04-02T00:42:27.965Z,99.66
2023-04-02T00:47:37.999Z,99.19
2023-04-02T00:52:45.311Z,99.43
2023-04-02T00:57:50.984Z,99.58
2023-04-02T01:03:29.974Z,99.55
2023-04-02T01:08:45.587Z,99.23
2023-04-02T01:13:57.079Z,99.05
2023-04-02T01:19:13.771Z,98.86
2023-04-02T01:24:17.433Z,98.99
2023-04-02T01:29:25.288Z,98.59
2023-04-02T01:34:31.076Z,98.28
2023-04-02T01:39:48.052Z,98.31
2023-04-02T01:44:54.538Z,98.27
2023-04-02T01:50:02.243Z,97.87
2023-04-02T01:55:08.698Z,97.60
2023-04-02T02:00:17.000Z,97.85
2023-04-02T02:05:23.087Z,97.52
2023-04-02T02:10:29.338Z,97.96
2023-04-02T02:15:35.315Z,97.84
2023-04-02T02:20:38.758Z,97.37
2023-04-02T02:25:42.865Z,97.11
2023-04-02T02:30:51.905Z,97.03
2023-04-02T02:36:00.791Z,96.89
2023-04-02T02:41:09.031Z,97.14
2023-04-02T02:46:19.393Z,96.89
2023-04-02T02:51:28.467Z,96.51
2023-04-02T02:56:37.001Z,96.32
2023-04-02T03:01:42.331Z,96.15
2023-04-02T03:06:50.350Z,95.85
2023-04-02T03:11:59.373Z,95.62
2023-04-02T03:17:12.113Z,95.47
2023-04-02T03:22:20.646Z,95.31
2023-04-02T03:27:27.665Z,95.05
2023-04-02T03:32:36.090Z,94.69
2023-04-02T03:37:43.030Z,94.60
2023-04-02T03:42:50.640Z,94.32
2023-04-02T03:48:00.993Z,93.57
2023-04-02T03:53:05.177Z,92.85
2023-04-02T03:58:15.093Z,92.79
2023-04-02T04:03:23.603Z,92.27
2023-04-02T04:08:32.960Z,92.07
2023-04-02T04:13:43.037Z,92.07
2023-04-02T04:18:57.197Z,92.29
2023-04-02T04:24:05.005Z,91.58
2023-04-02T04:29:18.172Z,91.69
2023-04-02T04:34:30.266Z,90.96
2023-04-02T04:39:43.699Z,91.13
2023-04-02T04:44:54.970Z,90.49
2023-04-02T04:50:04.978Z,90.30
2023-04-02T04:55:25.938Z,89.80
2023-04-02T05:00:41.104Z,89.49
2023-04-02T05:05:46.004Z,88.76
2023-04-02T05:10:53.563Z,89.05
2023-04-02T05:16:06.133Z,88.36
2023-04-02T05:21:20.384Z,87.88
2023-04-02T05:26:27.023Z,87.21
2023-04-02T05:31:39.765Z,87.40
2023-04-02T05:36:48.936Z,87.11
2023-04-02T05:42:02.042Z,86.72
2023-04-02T05:47:08.516Z,86.28
2023-04-02T05:52:18.977Z,85.87
2023-04-02T05:57:42.733Z,84.91
2023-04-02T06:02:55.035Z,84.49
2023-04-02T06:08:06.433Z,82.66
2023-04-02T06:13:12.482Z,82.28
2023-04-02T06:18:18.789Z,82.61
2023-04-02T06:23:31.094Z,80.17
2023-04-02T06:28:41.940Z,78.56
2023-04-02T06:33:45.288Z,78.09
2023-04-02T06:38:52.272Z,77.36
2023-04-02T06:43:59.088Z,77.81
2023-04-02T06:49:09.483Z,77.66
2023-04-02T06:54:17.916Z,77.64
2023-04-02T06:59:22.061Z,77.67
2023-04-02T07:04:25.926Z,77.30
2023-04-02T07:09:30.990Z,76.21
2023-04-02T07:14:35.160Z,75.68
2023-04-02T07:19:38.361Z,76.03
2023-04-02T07:24:43.037Z,76.51
2023-04-02T07:29:46.343Z,76.02
2023-04-02T07:34:49.715Z,76.46
2023-04-02T07:39:54.544Z,76.52
2023-04-02T07:44:57.989Z,76.06
2023-04-02T07:50:01.240Z,76.67
2023-04-02T07:55:07.183Z,76.42
2023-04-02T08:00:12.907Z,77.07
2023-04-02T08:05:16.302Z,77.74
2023-04-02T08:10:21.416Z,77.76
2023-04-02T08:15:25.206Z,77.64
2023-04-02T08:20:28.651Z,77.58
2023-04-02T08:25:33.609Z,77.70
2023-04-02T08:30:37.415Z,77.66
2023-04-02T08:35:40.839Z,77.57
2023-04-02T08:40:47.484Z,78.01
2023-04-02T08:46:00.762Z,76.99
2023-04-02T08:51:06.106Z,75.94
2023-04-02T08:56:18.049Z,76.14
2023-04-02T09:01:31.724Z,75.19
2023-04-02T09:06:35.458Z,73.63
2023-04-02T09:11:49.049Z,73.93
2023-04-02T09:16:55.098Z,73.90
2023-04-02T09:22:07.723Z,74.24
2023-04-02T09:27:21.094Z,74.45
2023-04-02T09:32:38.546Z,74.89
2023-04-02T09:37:42.422Z,76.04
2023-04-02T09:42:47.261Z,75.60
2023-04-02T09:47:51.603Z,75.80
2023-04-02T09:52:55.422Z,73.99
2023-04-02T09:58:17.176Z,73.49
2023-04-02T10:03:25.898Z,72.03
2023-04-02T10:08:29.402Z,68.78
2023-04-02T10:13:48.303Z,68.09
2023-04-02T10:18:56.024Z,66.79
2023-04-02T10:23:59.903Z,65.38
2023-04-02T10:29:27.640Z,63.83
2023-04-02T10:34:43.013Z,63.65
2023-04-02T10:39:51.679Z,63.51
2023-04-02T10:45:03.158Z,63.27
2023-04-02T10:50:22.519Z,62.38
2023-04-02T10:55:30.085Z,61.55
2023-04-02T11:00:38.685Z,61.86
2023-04-02T11:05:45.051Z,61.51
2023-04-02T11:10:52.210Z,60.48
2023-04-02T11:15:57.300Z,57.98
2023-04-02T11:21:06.551Z,55.31
2023-04-02T11:26:44.783Z,54.25
2023-04-02T11:31:51.710Z,54.35
2023-04-02T11:37:03.577Z,54.07
2023-04-02T11:42:22.731Z,54.82
2023-04-02T11:47:28.205Z,54.18
2023-04-02T11:52:39.202Z,54.55
2023-04-02T11:58:05.066Z,54.84
2023-04-02T12:03:32.437Z,55.51
2023-04-02T12:08:57.731Z,55.48
2023-04-02T12:14:02.520Z,54.31
2023-04-02T12:19:10.678Z,53.79
2023-04-02T12:24:20.891Z,51.94
2023-04-02T12:29:28.899Z,51.70
2023-04-02T12:34:33.843Z,54.06
2023-04-02T12:39:37.508Z,54.47
2023-04-02T12:44:50.275Z,54.36
2023-04-02T12:49:55.878Z,55.39
2023-04-02T12:55:01.480Z,55.59
2023-04-02T13:00:31.881Z,55.80
2023-04-02T13:05:41.551Z,55.41
2023-04-02T13:10:45.906Z,54.91
2023-04-02T13:16:03.738Z,55.83
2023-04-02T13:21:24.217Z,55.99
2023-04-02T13:26:29.376Z,57.07
2023-04-02T13:31:34.032Z,57.34
2023-04-02T13:36:38.890Z,58.34
2023-04-02T13:41:45.228Z,58.85
2023-04-02T13:46:48.864Z,59.05
2023-04-02T13:51:55.283Z,58.51
2023-04-02T13:56:59.616Z,59.30
2023-04-02T14:02:07.776Z,59.38
2023-04-02T14:07:41.404Z,59.55
2023-04-02T14:13:00.828Z,60.40
2023-04-02T14:18:30.931Z,60.33
2023-04-02T14:23:51.491Z,60.55
2023-04-02T14:29:04.601Z,60.56
2023-04-02T14:34:16.850Z,60.92
2023-04-02T14:39:29.762Z,60.66
2023-04-02T14:44:36.859Z,60.76
2023-04-02T14:49:44.091Z,60.52
2023-04-02T14:54:54.630Z,60.74
2023-04-02T15:00:04.014Z,59.57
2023-04-02T15:05:17.762Z,59.15
2023-04-02T15:10:27.689Z,58.95
2023-04-02T15:15:41.071Z,59.09
2023-04-02T15:20:56.274Z,58.53
2023-04-02T15:26:12.818Z,58.70
2023-04-02T15:31:16.612Z,58.44
2023-04-02T15:36:40.188Z,59.08
2023-04-02T15:41:58.057Z,59.03
2023-04-02T15:47:10.451Z,60.06
2023-04-02T15:52:18.835Z,60.25
2023-04-02T15:57:41.802Z,60.89
2023-04-02T16:03:02.667Z,61.52
2023-04-02T16:08:29.224Z,62.12
2023-04-02T16:13:35.819Z,62.39
2023-04-02T16:18:48.549Z,62.33
2023-04-02T16:23:52.184Z,62.35
2023-04-02T16:29:09.551Z,62.61
2023-04-02T16:34:20.097Z,62.58
2023-04-02T16:39:34.685Z,62.82
2023-04-02T16:44:53.420Z,63.13
2023-04-02T16:50:01.110Z,63.43
2023-04-02T16:55:23.701Z,63.91
2023-04-02T17:00:37.867Z,64.07
2023-04-02T17:05:52.674Z,64.25
2023-04-02T17:11:02.206Z,64.25
2023-04-02T17:16:18.511Z,65.01
2023-04-02T17:21:32.520Z,64.99
2023-04-02T17:26:39.153Z,65.33
2023-04-02T17:31:46.847Z,65.64
2023-04-02T17:36:58.713Z,65.83
2023-04-02T17:42:11.492Z,65.68
2023-04-02T17:47:23.968Z,66.05
2023-04-02T17:52:36.048Z,66.01
2023-04-02T17:57:55.427Z,66.03
2023-04-02T18:03:21.707Z,66.55
2023-04-02T18:08:33.652Z,66.30
2023-04-02T18:13:40.896Z,66.51
2023-04-02T18:19:10.178Z,66.75
2023-04-02T18:24:42.763Z,66.82
2023-04-02T18:29:57.232Z,66.83
2023-04-02T18:35:10.270Z,66.87
2023-04-02T18:40:32.444Z,67.31
2023-04-02T18:45:44.506Z,67.49
2023-04-02T18:50:50.206Z,67.32
2023-04-02T18:55:57.904Z,67.43
2023-04-02T19:01:03.035Z,67.17
2023-04-02T19:06:13.780Z,67.29
2023-04-02T19:11:20.588Z,67.12
2023-04-02T19:16:51.273Z,67.28
2023-04-02T19:22:14.045Z,67.44
2023-04-02T19:27:27.611Z,67.42
2023-04-02T19:32:40.374Z,67.47
2023-04-02T19:37:55.831Z,67.48
2023-04-02T19:42:59.461Z,67.71
2023-04-02T19:48:10.963Z,67.56
2023-04-02T19:53:16.791Z,67.71
2023-04-02T19:58:27.308Z,67.67
2023-04-02T20:03:32.564Z,67.85
2023-04-02T20:08:38.594Z,68.03
2023-04-02T20:13:43.116Z,67.99
2023-04-02T20:18:47.947Z,68.06
2023-04-02T20:23:55.749Z,68.13
2023-04-02T20:28:59.471Z,68.27
2023-04-02T20:34:05.300Z,68.45
2023-04-02T20:39:12.118Z,68.46
2023-04-02T20:44:15.548Z,68.79
2023-04-02T20:49:18.811Z,68.89
2023-04-02T20:54:23.617Z,69.07
2023-04-02T20:59:27.332Z,69.32
2023-04-02T21:04:30.575Z,69.57
2023-04-02T21:09:36.068Z,69.63
2023-04-02T21:14:40.171Z,70.00
2023-04-02T21:19:43.471Z,70.18
2023-04-02T21:24:48.187Z,70.34
2023-04-02T21:29:51.636Z,71.06
2023-04-02T21:34:55.500Z,71.28
2023-04-02T21:40:00.033Z,71.70
2023-04-02T21:45:03.909Z,71.30
2023-04-02T21:50:08.704Z,71.34
2023-04-02T21:55:13.497Z,71.13
2023-04-02T22:00:17.791Z,71.21
2023-04-02T22:05:21.039Z,71.05
2023-04-02T22:10:26.098Z,71.34
2023-04-02T22:15:29.506Z,71.46
2023-04-02T22:20:33.028Z,71.69
2023-04-02T22:25:38.231Z,71.37
2023-04-02T22:30:41.692Z,71.56
2023-04-02T22:35:45.057Z,71.51
2023-04-02T22:40:49.717Z,71.45
2023-04-02T22:45:52.910Z,71.30
2023-04-02T22:50:56.136Z,71.71
2023-04-02T22:56:06.694Z,71.65
2023-04-02T23:01:13.548Z,71.65
2023-04-02T23:06:19.218Z,71.62
2023-04-02T23:11:26.072Z,71.44
2023-04-02T23:16:30.804Z,71.40
2023-04-02T23:21:34.143Z,71.83
2023-04-02T23:26:38.758Z,71.95
2023-04-02T23:31:42.035Z,72.52
2023-04-02T23:36:45.405Z,73.15
2023-04-02T23:41:50.716Z,74.43
2023-04-02T23:46:54.407Z,74.86
2023-04-02T23:51:57.785Z,75.39
2023-04-02T23:57:02.688Z,75.70
